createdAt,value
2022-10-19T00:02:26.192Z,12.63
2022-10-19T00:05:23.165Z,12.58
2022-10-19T00:08:48.480Z,12.53
2022-10-19T00:11:19.682Z,12.47
2022-10-19T00:17:43.247Z,12.39
2022-10-19T00:20:44.912Z,12.35
2022-10-19T00:23:28.600Z,12.38
2022-10-19T00:26:08.426Z,12.39
2022-10-19T00:28:49.643Z,12.40
2022-10-19T00:31:45.306Z,12.37
2022-10-19T00:34:29.418Z,12.35
2022-10-19T00:37:12.509Z,12.32
2022-10-19T00:39:53.811Z,12.30
2022-10-19T00:42:36.321Z,12.28
2022-10-19T00:45:31.830Z,12.24
2022-10-19T00:48:13.898Z,12.19
2022-10-19T00:51:01.562Z,12.18
2022-10-19T00:53:41.834Z,12.12
2022-10-19T00:56:18.074Z,12.11
2022-10-19T00:59:05.427Z,12.10
2022-10-19T01:02:13.684Z,12.05
2022-10-19T01:05:49.348Z,12.01
2022-10-19T01:08:43.710Z,12.00
2022-10-19T01:11:50.187Z,11.95
2022-10-19T01:15:08.749Z,11.90
2022-10-19T01:18:32.139Z,11.84
2022-10-19T01:22:59.954Z,11.82
2022-10-19T01:24:48.031Z,11.81
2022-10-19T01:27:34.924Z,11.79
2022-10-19T01:31:28.934Z,11.77
2022-10-19T01:35:08.590Z,11.70
2022-10-19T01:38:25.218Z,11.65
2022-10-19T01:41:16.590Z,11.66
2022-10-19T01:44:04.886Z,11.68
2022-10-19T01:47:02.558Z,11.70
2022-10-19T01:53:32.239Z,11.73
2022-10-19T01:56:21.910Z,11.74
2022-10-19T01:59:14.109Z,11.76
2022-10-19T02:01:57.171Z,11.79
2022-10-19T02:04:37.187Z,11.83
2022-10-19T02:07:27.321Z,11.82
2022-10-19T02:10:02.598Z,11.80
2022-10-19T02:12:35.330Z,11.80
2022-10-19T02:15:29.099Z,11.80
2022-10-19T02:18:27.684Z,11.80
2022-10-19T02:21:16.594Z,11.79
2022-10-19T02:24:08.644Z,11.79
2022-10-19T02:26:41.231Z,11.81
2022-10-19T02:29:32.214Z,11.82
2022-10-19T02:32:16.254Z,11.81
2022-10-19T02:35:06.877Z,11.81
2022-10-19T02:38:19.795Z,11.81
2022-10-19T02:41:49.220Z,11.80
2022-10-19T02:45:03.513Z,11.78
2022-10-19T02:48:07.353Z,11.78
2022-10-19T02:51:04.395Z,11.80
2022-10-19T02:57:26.935Z,11.81
2022-10-19T03:03:57.582Z,11.80
2022-10-19T03:06:53.891Z,11.79
2022-10-19T03:09:34.530Z,11.81
2022-10-19T03:12:08.625Z,11.83
2022-10-19T03:14:51.429Z,11.83
2022-10-19T03:19:18.259Z,11.81
2022-10-19T03:20:47.924Z,11.77
2022-10-19T03:24:03.596Z,11.82
2022-10-19T03:27:13.296Z,11.79
2022-10-19T03:34:07.307Z,11.80
2022-10-19T03:37:40.937Z,11.78
2022-10-19T03:40:38.165Z,11.78
2022-10-19T03:46:51.225Z,11.80
2022-10-19T03:51:14.185Z,11.82
2022-10-19T03:53:41.674Z,11.79
2022-10-19T03:56:53.994Z,11.81
2022-10-19T04:00:24.794Z,11.82
2022-10-19T04:03:25.360Z,11.84
2022-10-19T04:06:29.960Z,11.86
2022-10-19T04:09:45.069Z,11.86
2022-10-19T04:13:06.099Z,11.86
2022-10-19T04:16:07.280Z,11.87
2022-10-19T04:19:04.869Z,11.85
2022-10-19T04:22:05.831Z,11.87
2022-10-19T04:28:41.089Z,11.89
2022-10-19T04:31:56.976Z,11.88
2022-10-19T04:38:15.895Z,11.90
2022-10-19T04:40:54.260Z,11.94
2022-10-19T04:47:44.650Z,11.96
2022-10-19T04:51:00.153Z,11.94
2022-10-19T04:54:22.467Z,11.94
2022-10-19T04:57:55.082Z,11.94
2022-10-19T05:04:13.269Z,11.90
2022-10-19T05:07:05.944Z,11.93
2022-10-19T05:10:22.223Z,11.92
2022-10-19T05:20:18.415Z,11.86
2022-10-19T05:26:48.203Z,11.84
2022-10-19T05:30:03.374Z,11.82
2022-10-19T05:32:52.730Z,11.82
2022-10-19T05:36:41.823Z,11.80
2022-10-19T05:39:38.235Z,11.77
2022-10-19T05:42:24.144Z,11.76
2022-10-19T05:45:01.754Z,11.79
2022-10-19T05:47:35.417Z,11.81
2022-10-19T05:50:08.536Z,11.81
2022-10-19T05:52:54.711Z,11.82
2022-10-19T05:57:36.882Z,11.80
2022-10-19T05:59:15.769Z,11.78
2022-10-19T06:02:20.411Z,11.71
2022-10-19T06:05:30.222Z,11.74
2022-10-19T06:08:14.996Z,11.78
2022-10-19T06:11:47.190Z,11.84
2022-10-19T06:21:08.665Z,11.85
2022-10-19T06:24:09.046Z,11.88
2022-10-19T06:26:55.294Z,11.92
2022-10-19T06:30:19.884Z,11.94
2022-10-19T06:33:16.746Z,11.95
2022-10-19T06:36:27.355Z,11.95
2022-10-19T06:39:09.977Z,11.96
2022-10-19T06:42:13.018Z,11.93
2022-10-19T06:44:59.300Z,11.96
2022-10-19T06:47:45.182Z,12.03
2022-10-19T06:50:28.837Z,12.10
2022-10-19T06:53:39.850Z,12.11
2022-10-19T06:59:51.390Z,12.16
2022-10-19T07:02:31.210Z,12.21
2022-10-19T07:06:46.741Z,12.26
2022-10-19T07:09:10.937Z,12.31
2022-10-19T07:15:54.079Z,12.39
2022-10-19T07:20:42.693Z,12.44
2022-10-19T07:23:10.744Z,12.47
2022-10-19T07:25:40.687Z,12.53
2022-10-19T07:32:46.919Z,12.69
2022-10-19T07:36:24.009Z,12.78
2022-10-19T07:39:26.036Z,12.85
2022-10-19T07:42:51.515Z,12.90
2022-10-19T07:46:05.045Z,12.99
2022-10-19T07:49:03.595Z,13.10
2022-10-19T07:52:02.968Z,13.23
2022-10-19T07:54:38.665Z,13.40
2022-10-19T07:58:11.950Z,13.55
2022-10-19T08:01:26.536Z,13.53
2022-10-19T08:07:58.636Z,13.62
2022-10-19T08:11:42.464Z,13.59
2022-10-19T08:14:55.130Z,13.58
2022-10-19T08:45:49.969Z,13.85
2022-10-19T09:00:49.650Z,14.00
2022-10-19T09:06:06.763Z,13.95
2022-10-19T09:07:37.606Z,13.92
2022-10-19T09:11:38.432Z,13.93
2022-10-19T09:14:06.298Z,13.86
2022-10-19T09:23:36.222Z,13.96
2022-10-19T09:27:38.996Z,13.99
2022-10-19T09:34:26.172Z,13.99
2022-10-19T09:36:57.800Z,13.93
2022-10-19T09:39:55.387Z,13.90
2022-10-19T09:43:05.549Z,13.91
2022-10-19T09:46:09.633Z,13.93
2022-10-19T09:50:41.657Z,13.96
2022-10-19T09:52:02.361Z,14.04
2022-10-19T09:54:44.239Z,14.08
2022-10-19T09:57:29.121Z,14.08
2022-10-19T10:00:08.723Z,14.12
2022-10-19T10:02:48.595Z,14.14
2022-10-19T10:05:18.803Z,14.01
2022-10-19T10:07:48.708Z,13.93
2022-10-19T10:10:55.319Z,13.85
2022-10-19T10:13:51.020Z,13.70
2022-10-19T10:16:33.823Z,13.57
2022-10-19T10:19:27.266Z,13.44
2022-10-19T10:22:02.278Z,13.31
2022-10-19T10:24:53.671Z,13.30
2022-10-19T10:27:59.426Z,13.36
2022-10-19T10:30:51.797Z,13.49
2022-10-19T10:33:46.088Z,13.75
2022-10-19T10:36:32.108Z,14.08
2022-10-19T10:39:14.424Z,14.23
2022-10-19T10:41:56.342Z,14.21
2022-10-19T10:44:36.456Z,14.16
2022-10-19T10:47:21.651Z,14.00
2022-10-19T10:50:39.828Z,13.86
2022-10-19T10:53:51.108Z,13.70
2022-10-19T10:56:34.021Z,13.54
2022-10-19T10:59:26.259Z,13.49
2022-10-19T11:02:22.121Z,13.47
2022-10-19T11:05:39.887Z,13.44
2022-10-19T11:08:19.110Z,13.46
2022-10-19T11:11:00.284Z,13.46
2022-10-19T11:13:58.895Z,13.46
2022-10-19T11:16:43.667Z,13.46
2022-10-19T11:19:34.083Z,13.46
2022-10-19T11:22:34.066Z,13.49
2022-10-19T11:25:30.608Z,13.51
2022-10-19T11:28:50.084Z,13.53
2022-10-19T11:32:16.464Z,13.54
2022-10-19T11:36:02.226Z,13.57
2022-10-19T11:38:59.394Z,13.62
2022-10-19T11:42:29.194Z,13.62
2022-10-19T11:45:41.124Z,13.64
2022-10-19T11:48:43.842Z,13.65
2022-10-19T11:52:02.315Z,13.67
2022-10-19T11:54:59.858Z,13.66
2022-10-19T11:58:08.741Z,13.71
2022-10-19T12:01:05.285Z,13.80
2022-10-19T12:04:22.747Z,13.88
2022-10-19T12:07:25.156Z,13.88
2022-10-19T12:10:41.579Z,13.86
2022-10-19T12:13:42.064Z,13.83
2022-10-19T12:17:47.723Z,13.82
2022-10-19T12:28:09.278Z,13.54
2022-10-19T12:34:41.506Z,13.29
2022-10-19T12:38:05.317Z,13.05
2022-10-19T12:42:12.655Z,12.86
2022-10-19T12:45:23.216Z,12.71
2022-10-19T12:51:52.821Z,12.44
2022-10-19T12:55:29.582Z,12.42
2022-10-19T13:01:45.363Z,12.20
2022-10-19T13:04:40.516Z,12.22
2022-10-19T13:07:27.109Z,12.23
2022-10-19T13:10:11.244Z,12.30
2022-10-19T13:13:04.003Z,12.37
2022-10-19T13:16:34.534Z,12.44
2022-10-19T13:20:02.524Z,12.49
2022-10-19T13:26:46.950Z,12.54
2022-10-19T13:36:06.571Z,12.61
2022-10-19T13:38:56.349Z,12.62
2022-10-19T13:42:00.266Z,12.60
2022-10-19T13:44:42.761Z,12.55
2022-10-19T13:47:50.365Z,12.54
2022-10-19T13:50:58.498Z,12.56
2022-10-19T13:54:14.255Z,12.58
2022-10-19T13:57:18.189Z,12.63
2022-10-19T14:00:35.831Z,12.64
2022-10-19T14:03:55.257Z,12.59
2022-10-19T14:06:59.393Z,12.58
2022-10-19T14:09:48.800Z,12.53
2022-10-19T14:12:45.295Z,12.51
2022-10-19T14:15:21.467Z,12.49
2022-10-19T14:18:35.101Z,12.48
2022-10-19T14:21:34.018Z,12.45
2022-10-19T14:24:06.684Z,12.45
2022-10-19T14:26:45.172Z,12.45
2022-10-19T14:30:04.036Z,12.42
2022-10-19T14:32:41.298Z,12.38
2022-10-19T14:36:27.223Z,12.38
2022-10-19T14:38:40.654Z,12.35
2022-10-19T14:41:49.339Z,12.35
2022-10-19T14:44:49.599Z,12.35
2022-10-19T14:47:40.305Z,12.29
2022-10-19T14:50:29.017Z,12.17
2022-10-19T14:54:31.376Z,12.15
2022-10-19T14:57:11.342Z,12.10
2022-10-19T14:59:56.621Z,12.10
2022-10-19T15:02:50.093Z,12.09
2022-10-19T15:05:52.359Z,12.07
2022-10-19T15:11:37.863Z,12.00
2022-10-19T15:14:20.875Z,11.98
2022-10-19T15:17:20.804Z,11.92
2022-10-19T15:20:04.805Z,11.85
2022-10-19T15:22:41.882Z,11.81
2022-10-19T15:28:41.578Z,11.71
2022-10-19T15:31:38.845Z,11.56
2022-10-19T15:34:34.357Z,11.49
2022-10-19T15:40:38.678Z,11.37
2022-10-19T15:43:39.963Z,11.29
2022-10-19T15:47:08.580Z,11.23
2022-10-19T15:49:44.460Z,11.18
2022-10-19T15:52:30.429Z,11.15
2022-10-19T15:55:07.472Z,11.13
2022-10-19T15:59:28.729Z,11.12
2022-10-19T16:00:51.842Z,11.05
2022-10-19T16:03:23.366Z,11.04
2022-10-19T16:05:53.750Z,11.03
2022-10-19T16:08:25.337Z,11.01
2022-10-19T16:10:54.325Z,10.97
2022-10-19T16:13:23.268Z,10.93
2022-10-19T16:16:10.402Z,10.87
2022-10-19T16:18:41.332Z,10.78
2022-10-19T16:21:10.344Z,10.73
2022-10-19T16:23:42.037Z,10.69
2022-10-19T16:26:17.389Z,10.65
2022-10-19T16:29:04.583Z,10.61
2022-10-19T16:31:44.497Z,10.57
2022-10-19T16:34:22.524Z,10.54
2022-10-19T16:37:11.869Z,10.51
2022-10-19T16:40:02.233Z,10.48
2022-10-19T16:42:39.857Z,10.45
2022-10-19T16:45:11.413Z,10.46
2022-10-19T16:47:56.783Z,10.44
2022-10-19T16:50:30.766Z,10.44
2022-10-19T16:53:13.016Z,10.44
2022-10-19T16:55:56.239Z,10.42
2022-10-19T16:58:28.577Z,10.43
2022-10-19T17:01:17.684Z,10.42
2022-10-19T17:03:50.657Z,10.40
2022-10-19T17:06:20.727Z,10.39
2022-10-19T17:09:30.180Z,10.38
2022-10-19T17:11:55.289Z,10.32
2022-10-19T17:14:31.410Z,10.30
2022-10-19T17:17:13.556Z,10.29
2022-10-19T17:19:52.068Z,10.28
2022-10-19T17:22:28.578Z,10.27
2022-10-19T17:26:14.254Z,10.25
2022-10-19T17:28:51.740Z,10.19
2022-10-19T17:31:26.696Z,10.18
2022-10-19T17:34:01.819Z,10.17
2022-10-19T17:36:44.767Z,10.14
2022-10-19T17:39:29.951Z,10.06
2022-10-19T17:42:03.671Z,9.98
2022-10-19T17:44:37.815Z,9.91
2022-10-19T17:47:30.651Z,9.85
2022-10-19T17:50:00.367Z,9.77
2022-10-19T17:52:41.957Z,9.71
2022-10-19T17:55:19.010Z,9.64
2022-10-19T17:58:09.118Z,9.58
2022-10-19T18:00:44.892Z,9.52
2022-10-19T18:03:28.232Z,9.38
2022-10-19T18:06:12.176Z,9.32
2022-10-19T18:08:45.715Z,9.25
2022-10-19T18:11:32.326Z,9.22
2022-10-19T18:14:12.019Z,9.07
2022-10-19T18:16:52.216Z,9.04
2022-10-19T18:19:22.387Z,9.01
2022-10-19T18:21:57.701Z,8.95
2022-10-19T18:24:39.114Z,8.90
2022-10-19T18:27:41.188Z,8.81
2022-10-19T18:30:23.054Z,8.73
2022-10-19T18:32:56.765Z,8.69
2022-10-19T18:35:43.065Z,8.64
2022-10-19T18:38:14.563Z,8.58
2022-10-19T18:40:48.279Z,8.52
2022-10-19T18:43:25.194Z,8.46
2022-10-19T18:46:05.254Z,8.40
2022-10-19T18:51:38.337Z,8.23
2022-10-19T18:54:27.030Z,8.17
2022-10-19T18:57:06.611Z,8.10
2022-10-19T18:59:36.259Z,8.04
2022-10-19T19:02:22.266Z,7.99
2022-10-19T19:05:06.344Z,7.94
2022-10-19T19:14:40.472Z,7.72
2022-10-19T19:17:13.762Z,7.69
2022-10-19T19:20:04.873Z,7.66
2022-10-19T19:26:07.966Z,7.56
2022-10-19T19:28:56.525Z,7.52
2022-10-19T19:31:43.731Z,7.50
2022-10-19T19:34:54.562Z,7.46
2022-10-19T19:37:39.601Z,7.39
2022-10-19T19:40:31.955Z,7.36
2022-10-19T19:46:00.033Z,7.30
2022-10-19T19:51:35.574Z,7.21
2022-10-19T19:54:17.448Z,7.17
2022-10-19T19:56:55.587Z,7.12
2022-10-19T20:00:32.179Z,7.05
2022-10-19T20:03:07.719Z,6.99
2022-10-19T20:06:08.913Z,6.94
2022-10-19T20:09:25.094Z,6.88
2022-10-19T20:12:35.717Z,6.82
2022-10-19T20:18:23.982Z,6.80
2022-10-19T20:21:31.890Z,6.77
2022-10-19T20:24:23.798Z,6.73
2022-10-19T20:26:59.710Z,6.67
2022-10-19T20:29:45.005Z,6.63
2022-10-19T20:32:32.614Z,6.59
2022-10-19T20:35:43.770Z,6.53
2022-10-19T20:38:29.986Z,6.49
2022-10-19T20:41:20.727Z,6.47
2022-10-19T20:44:01.395Z,6.43
2022-10-19T20:46:49.333Z,6.41
2022-10-19T20:49:54.811Z,6.39
2022-10-19T20:52:51.575Z,6.36
2022-10-19T20:55:40.123Z,6.34
2022-10-19T20:58:42.478Z,6.28
2022-10-19T21:01:34.094Z,6.23
2022-10-19T21:04:27.945Z,6.16
2022-10-19T21:07:21.810Z,6.12
2022-10-19T21:10:17.399Z,6.08
2022-10-19T21:13:00.923Z,6.03
2022-10-19T21:15:40.856Z,5.99
2022-10-19T21:18:18.512Z,5.86
2022-10-19T21:20:54.013Z,5.82
2022-10-19T21:24:17.835Z,5.78
2022-10-19T21:27:00.148Z,5.76
2022-10-19T21:29:47.654Z,5.73
2022-10-19T21:32:37.173Z,5.69
2022-10-19T21:38:30.011Z,5.62
2022-10-19T21:41:15.597Z,5.62
2022-10-19T21:44:41.449Z,5.60
2022-10-19T21:47:29.943Z,5.56
2022-10-19T21:49:59.284Z,5.56
2022-10-19T21:52:41.878Z,5.53
2022-10-19T22:01:37.301Z,5.43
2022-10-19T22:16:31.976Z,5.15
2022-10-19T22:27:13.088Z,5.05
2022-10-19T22:30:14.885Z,5.04
2022-10-19T22:33:40.878Z,5.03
2022-10-19T23:01:12.803Z,4.62
2022-10-19T23:03:57.704Z,4.59
2022-10-19T23:06:36.218Z,4.56
2022-10-19T23:09:12.889Z,4.54
2022-10-19T23:15:52.820Z,4.46
2022-10-19T23:18:55.414Z,4.34
2022-10-19T23:21:35.223Z,4.29
2022-10-19T23:24:35.923Z,4.29
2022-10-19T23:27:43.276Z,4.27
2022-10-19T23:30:14.145Z,4.21
2022-10-19T23:36:36.269Z,4.22
2022-10-19T23:39:45.948Z,4.21
2022-10-19T23:42:25.456Z,4.19
2022-10-19T23:45:13.767Z,4.20
2022-10-19T23:47:57.189Z,4.21
2022-10-19T23:50:30.431Z,4.20
2022-10-19T23:53:25.484Z,4.20
2022-10-19T23:56:55.042Z,4.12
